createdAt,value
2022-08-04T00:01:17.784Z,24.60
2022-08-04T00:04:17.375Z,24.51
2022-08-04T00:07:00.052Z,24.45
2022-08-04T00:09:53.761Z,24.40
2022-08-04T00:12:31.210Z,24.39
2022-08-04T00:15:00.135Z,24.43
2022-08-04T00:17:32.234Z,24.41
2022-08-04T00:20:02.130Z,24.37
2022-08-04T00:22:30.649Z,24.28
2022-08-04T00:24:58.434Z,24.21
2022-08-04T00:27:25.087Z,24.24
2022-08-04T00:29:53.142Z,24.26
2022-08-04T00:32:34.530Z,24.25
2022-08-04T00:35:01.994Z,24.23
2022-08-04T00:37:28.728Z,24.24
2022-08-04T00:39:56.941Z,24.24
2022-08-04T00:42:34.696Z,24.29
2022-08-04T00:45:04.242Z,24.17
2022-08-04T00:48:04.831Z,24.05
2022-08-04T00:51:05.501Z,24.11
2022-08-04T00:53:49.935Z,24.08
2022-08-04T00:56:57.774Z,24.03
2022-08-04T00:59:36.454Z,23.97
2022-08-04T01:02:08.873Z,23.98
2022-08-04T01:04:53.635Z,24.04
2022-08-04T01:07:57.277Z,24.09
2022-08-04T01:10:45.535Z,24.09
2022-08-04T01:13:26.600Z,24.11
2022-08-04T01:16:05.227Z,24.13
2022-08-04T01:19:24.614Z,24.13
2022-08-04T01:22:15.108Z,24.11
2022-08-04T01:25:09.590Z,24.07
2022-08-04T01:27:49.291Z,24.00
2022-08-04T01:30:16.646Z,24.06
2022-08-04T01:33:03.341Z,24.01
2022-08-04T01:35:46.579Z,24.04
2022-08-04T01:38:33.660Z,24.06
2022-08-04T01:41:04.613Z,24.03
2022-08-04T01:43:33.690Z,24.05
2022-08-04T01:46:03.482Z,24.05
2022-08-04T01:48:30.393Z,24.04
2022-08-04T01:50:59.045Z,23.89
2022-08-04T01:53:32.498Z,23.92
2022-08-04T01:56:01.552Z,23.94
2022-08-04T01:58:31.079Z,23.99
2022-08-04T02:01:08.628Z,24.02
2022-08-04T02:04:19.398Z,24.00
2022-08-04T02:06:42.691Z,23.92
2022-08-04T02:09:29.956Z,23.89
2022-08-04T02:12:27.236Z,23.87
2022-08-04T02:15:02.326Z,23.79
2022-08-04T02:17:50.841Z,23.81
2022-08-04T02:20:29.058Z,23.81
2022-08-04T02:23:00.482Z,23.78
2022-08-04T02:25:29.468Z,23.67
2022-08-04T02:28:08.071Z,23.64
2022-08-04T02:30:58.522Z,23.61
2022-08-04T02:33:35.947Z,23.35
2022-08-04T02:36:05.390Z,23.14
2022-08-04T02:38:47.591Z,23.18
2022-08-04T02:41:16.413Z,23.23
2022-08-04T02:43:51.435Z,23.16
2022-08-04T02:46:21.725Z,23.12
2022-08-04T02:48:50.088Z,23.21
2022-08-04T02:51:21.585Z,23.11
2022-08-04T02:53:52.325Z,23.07
2022-08-04T02:56:20.259Z,23.11
2022-08-04T02:58:51.893Z,23.01
2022-08-04T03:01:18.665Z,22.88
2022-08-04T03:03:45.138Z,22.93
2022-08-04T03:06:11.618Z,22.94
2022-08-04T03:09:18.331Z,23.02
2022-08-04T03:12:12.627Z,22.92
2022-08-04T03:14:57.428Z,22.75
2022-08-04T03:18:10.452Z,22.42
2022-08-04T03:20:54.219Z,22.22
2022-08-04T03:23:58.455Z,22.21
2022-08-04T03:26:56.978Z,22.32
2022-08-04T03:29:55.163Z,22.45
2022-08-04T03:32:32.999Z,22.44
2022-08-04T03:35:13.567Z,22.47
2022-08-04T03:38:07.555Z,22.51
2022-08-04T03:41:51.667Z,22.51
2022-08-04T03:44:21.847Z,22.41
2022-08-04T03:47:23.331Z,22.36
2022-08-04T03:50:02.126Z,22.44
2022-08-04T03:52:58.704Z,22.52
2022-08-04T03:55:40.029Z,22.49
2022-08-04T03:58:09.387Z,22.46
2022-08-04T04:00:54.174Z,22.37
2022-08-04T04:03:56.348Z,22.25
2022-08-04T04:06:53.703Z,22.30
2022-08-04T04:09:57.717Z,22.30
2022-08-04T04:12:51.182Z,22.43
2022-08-04T04:15:34.478Z,22.42
2022-08-04T04:18:21.157Z,22.47
2022-08-04T04:21:09.465Z,22.42
2022-08-04T04:23:54.492Z,22.47
2022-08-04T04:26:48.929Z,22.42
2022-08-04T04:29:37.280Z,22.39
2022-08-04T04:32:22.007Z,22.41
2022-08-04T04:35:07.249Z,22.48
2022-08-04T04:37:48.110Z,22.50
2022-08-04T04:40:32.480Z,22.49
2022-08-04T04:43:51.820Z,22.45
2022-08-04T04:46:43.743Z,22.37
2022-08-04T04:49:33.483Z,22.41
2022-08-04T04:52:15.145Z,22.42
2022-08-04T04:55:02.651Z,22.49
2022-08-04T04:57:54.329Z,22.50
2022-08-04T05:00:25.160Z,22.62
2022-08-04T05:03:23.227Z,22.69
2022-08-04T05:06:25.042Z,22.70
2022-08-04T05:09:12.473Z,22.77
2022-08-04T05:11:56.937Z,22.79
2022-08-04T05:14:42.110Z,22.76
2022-08-04T05:17:27.033Z,22.77
2022-08-04T05:20:27.646Z,22.79
2022-08-04T05:22:58.319Z,22.76
2022-08-04T05:25:32.899Z,22.80
2022-08-04T05:28:12.219Z,22.82
2022-08-04T05:30:48.286Z,22.83
2022-08-04T05:33:42.640Z,22.86
2022-08-04T05:36:18.981Z,22.90
2022-08-04T05:38:55.646Z,22.99
2022-08-04T05:41:22.929Z,23.04
2022-08-04T05:43:59.705Z,23.03
2022-08-04T05:46:29.145Z,23.06
2022-08-04T05:48:56.137Z,23.17
2022-08-04T05:51:23.475Z,23.17
2022-08-04T05:53:51.754Z,23.20
2022-08-04T05:56:19.305Z,23.43
2022-08-04T05:58:46.459Z,23.58
2022-08-04T06:01:14.801Z,23.72
2022-08-04T06:03:43.791Z,23.86
2022-08-04T06:06:11.519Z,24.08
2022-08-04T06:08:38.076Z,24.19
2022-08-04T06:11:07.987Z,24.35
2022-08-04T06:13:49.730Z,24.47
2022-08-04T06:16:29.106Z,24.50
2022-08-04T06:20:02.462Z,24.53
2022-08-04T06:21:49.979Z,24.51
2022-08-04T06:24:20.975Z,24.64
2022-08-04T06:26:50.297Z,24.66
2022-08-04T06:29:26.581Z,24.62
2022-08-04T06:32:31.823Z,24.64
2022-08-04T06:34:45.523Z,24.85
2022-08-04T06:37:12.316Z,25.02
2022-08-04T06:40:01.750Z,25.19
2022-08-04T06:42:31.377Z,25.42
2022-08-04T06:44:59.190Z,25.38
2022-08-04T06:47:26.603Z,25.51
2022-08-04T06:51:25.474Z,25.62
2022-08-04T06:52:44.650Z,25.72
2022-08-04T06:55:11.554Z,25.91
2022-08-04T06:57:40.369Z,25.88
2022-08-04T07:00:14.591Z,25.86
2022-08-04T07:02:53.180Z,26.08
2022-08-04T07:05:21.274Z,26.24
2022-08-04T07:07:56.796Z,26.28
2022-08-04T07:10:28.784Z,26.39
2022-08-04T07:12:57.378Z,26.44
2022-08-04T07:15:24.986Z,26.44
2022-08-04T07:17:52.950Z,26.51
2022-08-04T07:20:33.823Z,26.81
2022-08-04T07:23:06.484Z,26.72
2022-08-04T07:26:12.189Z,26.82
2022-08-04T07:28:37.739Z,26.93
2022-08-04T07:31:07.331Z,26.98
2022-08-04T07:33:40.510Z,27.13
2022-08-04T07:36:11.742Z,27.30
2022-08-04T07:38:48.409Z,27.22
2022-08-04T07:41:38.543Z,27.43
2022-08-04T07:44:05.691Z,27.48
2022-08-04T07:46:32.519Z,27.59
2022-08-04T07:49:03.002Z,27.65
2022-08-04T07:51:30.898Z,27.62
2022-08-04T07:53:58.895Z,27.82
2022-08-04T07:56:26.784Z,27.81
2022-08-04T07:58:54.082Z,27.96
2022-08-04T08:01:21.643Z,28.13
2022-08-04T08:03:49.642Z,28.17
2022-08-04T08:06:32.047Z,28.16
2022-08-04T08:09:13.039Z,28.42
2022-08-04T08:12:37.863Z,28.30
2022-08-04T08:14:33.402Z,28.32
2022-08-04T08:17:02.412Z,28.42
2022-08-04T08:19:30.643Z,28.42
2022-08-04T08:21:59.060Z,28.55
2022-08-04T08:24:28.312Z,28.53
2022-08-04T08:26:55.982Z,28.58
2022-08-04T08:29:24.155Z,28.69
2022-08-04T08:31:57.188Z,28.88
2022-08-04T08:34:28.809Z,28.94
2022-08-04T08:37:04.886Z,28.80
2022-08-04T08:39:40.072Z,28.83
2022-08-04T08:42:31.420Z,29.16
2022-08-04T08:45:17.960Z,29.03
2022-08-04T08:48:05.390Z,28.93
2022-08-04T08:51:10.089Z,29.33
2022-08-04T08:53:57.788Z,29.29
2022-08-04T08:57:10.174Z,29.35
2022-08-04T09:00:01.541Z,29.65
2022-08-04T09:02:46.312Z,29.85
2022-08-04T09:05:34.697Z,29.75
2022-08-04T09:08:32.121Z,29.74
2022-08-04T09:11:15.637Z,29.74
2022-08-04T09:13:50.061Z,29.85
2022-08-04T09:16:22.145Z,30.10
2022-08-04T09:19:02.490Z,30.44
2022-08-04T09:22:04.167Z,30.60
2022-08-04T09:24:37.930Z,30.79
2022-08-04T09:27:18.462Z,30.91
2022-08-04T09:29:57.262Z,31.32
2022-08-04T09:32:34.759Z,31.47
2022-08-04T09:35:21.439Z,31.67
2022-08-04T09:38:18.458Z,31.93
2022-08-04T09:41:33.929Z,32.03
2022-08-04T09:44:49.358Z,32.21
2022-08-04T09:47:11.475Z,32.28
2022-08-04T09:50:04.315Z,32.18
2022-08-04T09:52:54.775Z,32.34
2022-08-04T09:55:54.490Z,32.59
2022-08-04T09:58:51.310Z,32.79
2022-08-04T10:01:24.251Z,32.63
2022-08-04T10:03:54.987Z,33.00
2022-08-04T10:06:48.140Z,33.38
2022-08-04T10:09:52.085Z,33.38
2022-08-04T10:12:25.207Z,33.60
2022-08-04T10:15:02.200Z,33.58
2022-08-04T10:17:43.590Z,33.86
2022-08-04T10:20:58.147Z,34.13
2022-08-04T10:24:05.570Z,34.07
2022-08-04T10:26:57.538Z,34.22
2022-08-04T10:29:30.772Z,34.40
2022-08-04T10:32:07.459Z,34.22
2022-08-04T10:34:44.361Z,34.33
2022-08-04T10:38:00.208Z,34.53
2022-08-04T10:40:40.643Z,34.67
2022-08-04T10:43:35.459Z,34.82
2022-08-04T10:46:05.268Z,34.80
2022-08-04T10:49:09.065Z,35.01
2022-08-04T10:51:57.979Z,35.27
2022-08-04T10:54:54.037Z,35.37
2022-08-04T10:57:38.720Z,35.61
2022-08-04T11:00:20.856Z,35.52
2022-08-04T11:03:12.622Z,35.67
2022-08-04T11:06:10.339Z,35.51
2022-08-04T11:08:50.061Z,35.45
2022-08-04T11:12:01.649Z,35.68
2022-08-04T11:14:55.364Z,35.97
2022-08-04T11:17:45.947Z,36.04
2022-08-04T11:23:08.727Z,36.11
2022-08-04T11:26:07.263Z,36.21
2022-08-04T11:28:58.418Z,36.54
2022-08-04T11:31:35.455Z,36.41
2022-08-04T11:34:13.343Z,36.41
2022-08-04T11:36:45.572Z,36.34
2022-08-04T11:39:59.003Z,36.43
2022-08-04T11:42:34.713Z,36.43
2022-08-04T11:45:07.005Z,36.32
2022-08-04T11:47:40.380Z,36.65
2022-08-04T11:50:34.823Z,36.87
2022-08-04T11:53:02.733Z,36.65
2022-08-04T11:55:32.362Z,36.69
2022-08-04T11:58:21.018Z,36.91
2022-08-04T12:00:59.424Z,37.23
2022-08-04T12:03:37.525Z,36.91
2022-08-04T12:06:07.406Z,36.95
2022-08-04T12:09:10.190Z,37.20
2022-08-04T12:11:43.156Z,37.52
2022-08-04T12:14:35.046Z,37.50
2022-08-04T12:17:04.489Z,37.28
2022-08-04T12:20:04.349Z,36.80
2022-08-04T12:22:43.993Z,36.75
2022-08-04T12:25:16.162Z,36.69
2022-08-04T12:27:54.786Z,36.94
2022-08-04T12:30:59.027Z,37.19
2022-08-04T12:33:24.469Z,37.27
2022-08-04T12:36:21.548Z,36.98
2022-08-04T12:39:09.088Z,37.03
2022-08-04T12:41:45.622Z,36.48
2022-08-04T12:44:37.573Z,36.42
2022-08-04T12:47:25.827Z,36.41
2022-08-04T12:49:59.977Z,35.86
2022-08-04T12:55:18.281Z,35.67
2022-08-04T12:57:46.830Z,35.48
2022-08-04T13:00:26.257Z,35.39
2022-08-04T13:03:02.009Z,35.87
2022-08-04T13:05:31.303Z,36.13
2022-08-04T13:07:59.375Z,35.65
2022-08-04T13:10:30.412Z,35.82
2022-08-04T13:12:59.332Z,36.07
2022-08-04T13:15:27.103Z,36.08
2022-08-04T13:18:02.569Z,35.57
2022-08-04T13:20:35.679Z,35.77
2022-08-04T13:23:09.476Z,35.83
2022-08-04T13:26:44.849Z,35.59
2022-08-04T13:28:34.324Z,35.09
2022-08-04T13:31:02.651Z,35.07
2022-08-04T13:33:35.423Z,34.88
2022-08-04T13:36:02.635Z,34.97
2022-08-04T13:38:31.367Z,34.84
2022-08-04T13:41:02.158Z,34.96
2022-08-04T13:44:15.665Z,34.63
2022-08-04T13:46:33.935Z,34.47
2022-08-04T13:51:59.130Z,33.95
2022-08-04T13:54:35.085Z,33.97
2022-08-04T13:57:11.156Z,33.83
2022-08-04T13:59:40.498Z,33.24
2022-08-04T14:02:26.003Z,33.25
2022-08-04T14:04:57.473Z,33.17
2022-08-04T14:07:26.617Z,33.10
2022-08-04T14:10:03.093Z,33.19
2022-08-04T14:12:38.132Z,32.96
2022-08-04T14:15:06.353Z,32.67
2022-08-04T14:17:33.142Z,32.81
2022-08-04T14:20:01.337Z,32.82
2022-08-04T14:22:28.100Z,32.98
2022-08-04T14:25:16.698Z,32.73
2022-08-04T14:27:49.839Z,32.10
2022-08-04T14:30:26.374Z,31.96
2022-08-04T14:32:58.194Z,32.21
2022-08-04T14:35:26.487Z,32.19
2022-08-04T14:38:03.427Z,31.72
2022-08-04T14:40:33.325Z,31.61
2022-08-04T14:43:00.843Z,31.72
2022-08-04T14:45:32.045Z,31.89
2022-08-04T14:47:59.306Z,31.27
2022-08-04T14:50:46.945Z,31.72
2022-08-04T14:53:21.918Z,31.73
2022-08-04T14:55:54.007Z,31.43
2022-08-04T14:58:35.374Z,31.33
2022-08-04T15:01:10.234Z,31.65
2022-08-04T15:03:48.261Z,31.61
2022-08-04T15:06:22.157Z,31.17
2022-08-04T15:08:51.796Z,30.81
2022-08-04T15:11:23.141Z,31.10
2022-08-04T15:13:54.009Z,30.48
2022-08-04T15:16:22.371Z,30.83
2022-08-04T15:18:50.080Z,31.07
2022-08-04T15:21:18.594Z,30.95
2022-08-04T15:23:47.102Z,31.36
2022-08-04T15:26:17.464Z,30.83
2022-08-04T15:28:51.553Z,30.93
2022-08-04T15:32:07.163Z,30.99
2022-08-04T15:34:09.663Z,31.06
2022-08-04T15:36:57.132Z,31.37
2022-08-04T15:39:38.836Z,31.44
2022-08-04T15:42:30.865Z,31.36
2022-08-04T15:46:41.364Z,31.27
2022-08-04T15:48:13.798Z,31.35
2022-08-04T15:51:05.377Z,31.10
2022-08-04T15:54:03.160Z,31.31
2022-08-04T15:56:30.635Z,31.07
2022-08-04T15:58:57.917Z,31.28
2022-08-04T16:01:25.302Z,30.86
2022-08-04T16:04:00.334Z,30.98
2022-08-04T16:06:29.453Z,30.81
2022-08-04T16:09:05.710Z,30.76
2022-08-04T16:11:40.102Z,31.27
2022-08-04T16:14:11.858Z,30.96
2022-08-04T16:16:59.449Z,30.99
2022-08-04T16:19:35.396Z,31.22
2022-08-04T16:22:04.549Z,30.71
2022-08-04T16:24:42.391Z,31.03
2022-08-04T16:27:13.270Z,31.02
2022-08-04T16:29:47.870Z,30.99
2022-08-04T16:32:16.172Z,31.26
2022-08-04T16:35:00.948Z,31.30
2022-08-04T16:37:39.724Z,31.24
2022-08-04T16:40:34.399Z,31.28
2022-08-04T16:43:10.784Z,31.13
2022-08-04T16:45:48.258Z,31.24
2022-08-04T16:48:16.899Z,31.18
2022-08-04T16:51:05.219Z,30.94
2022-08-04T16:54:02.676Z,31.09
2022-08-04T16:56:34.729Z,31.13
2022-08-04T16:59:12.554Z,31.11
2022-08-04T17:01:53.636Z,31.15
2022-08-04T17:04:32.504Z,31.19
2022-08-04T17:07:03.745Z,30.96
2022-08-04T17:09:30.459Z,30.96
2022-08-04T17:11:57.767Z,30.73
2022-08-04T17:14:27.268Z,30.46
2022-08-04T17:16:57.877Z,30.13
2022-08-04T17:19:26.820Z,30.43
2022-08-04T17:22:02.207Z,30.36
2022-08-04T17:24:31.125Z,30.34
2022-08-04T17:26:58.430Z,30.14
2022-08-04T17:29:43.578Z,30.14
2022-08-04T17:32:20.968Z,29.87
2022-08-04T17:34:50.724Z,29.80
2022-08-04T17:37:40.211Z,29.39
2022-08-04T17:40:11.072Z,29.47
2022-08-04T17:42:39.915Z,29.55
2022-08-04T17:45:49.425Z,29.50
2022-08-04T17:47:58.117Z,29.23
2022-08-04T17:50:31.281Z,29.03
2022-08-04T17:53:01.756Z,29.21
2022-08-04T17:55:42.688Z,28.98
2022-08-04T17:58:21.433Z,29.06
2022-08-04T18:01:23.562Z,29.14
2022-08-04T18:03:52.886Z,29.18
2022-08-04T18:06:28.475Z,29.09
2022-08-04T18:09:22.171Z,28.68
2022-08-04T18:11:54.496Z,28.43
2022-08-04T18:14:25.977Z,28.76
2022-08-04T18:16:57.150Z,28.73
2022-08-04T18:19:24.575Z,28.63
2022-08-04T18:21:59.801Z,28.36
2022-08-04T18:24:35.058Z,28.43
2022-08-04T18:27:17.717Z,28.79
2022-08-04T18:30:14.630Z,28.57
2022-08-04T18:32:32.980Z,28.06
2022-08-04T18:35:05.543Z,28.34
2022-08-04T18:38:06.156Z,28.50
2022-08-04T18:40:29.955Z,28.29
2022-08-04T18:43:02.023Z,27.77
2022-08-04T18:45:33.798Z,27.58
2022-08-04T18:48:02.139Z,27.70
2022-08-04T18:51:01.121Z,28.07
2022-08-04T18:53:17.227Z,28.13
2022-08-04T18:55:56.828Z,28.23
2022-08-04T18:58:27.372Z,27.47
2022-08-04T19:00:55.816Z,27.64
2022-08-04T19:03:23.412Z,27.61
2022-08-04T19:05:51.517Z,27.86
2022-08-04T19:08:32.846Z,28.06
2022-08-04T19:11:37.184Z,27.92
2022-08-04T19:13:54.789Z,27.56
2022-08-04T19:16:28.860Z,27.85
2022-08-04T19:18:56.499Z,27.98
2022-08-04T19:21:59.989Z,27.71
2022-08-04T19:24:32.128Z,27.81
2022-08-04T19:26:56.868Z,27.80
2022-08-04T19:29:23.590Z,27.47
2022-08-04T19:31:50.248Z,27.16
2022-08-04T19:34:33.274Z,26.53
2022-08-04T19:37:01.962Z,26.14
2022-08-04T19:39:31.196Z,25.75
2022-08-04T19:42:04.595Z,25.95
2022-08-04T19:44:32.958Z,25.88
2022-08-04T19:47:00.756Z,25.68
2022-08-04T19:50:04.744Z,25.41
2022-08-04T19:52:15.394Z,25.54
2022-08-04T19:55:01.267Z,25.60
2022-08-04T19:57:41.476Z,25.46
2022-08-04T20:00:10.083Z,25.42
2022-08-04T20:02:37.135Z,25.41
2022-08-04T20:05:11.209Z,25.26
2022-08-04T20:07:38.048Z,25.33
2022-08-04T20:10:06.830Z,25.26
2022-08-04T20:12:34.426Z,25.17
2022-08-04T20:15:10.915Z,25.17
2022-08-04T20:18:07.392Z,24.90
2022-08-04T20:20:26.415Z,25.32
2022-08-04T20:22:53.450Z,25.03
2022-08-04T20:28:07.092Z,24.96
2022-08-04T20:30:33.692Z,24.96
2022-08-04T20:33:04.366Z,24.95
2022-08-04T20:36:03.284Z,25.08
2022-08-04T20:38:32.654Z,25.31
2022-08-04T20:41:01.344Z,25.55
2022-08-04T20:43:28.159Z,25.60
2022-08-04T20:45:59.155Z,25.47
2022-08-04T20:48:33.526Z,25.41
2022-08-04T20:51:00.580Z,25.67
2022-08-04T20:53:46.637Z,25.83
2022-08-04T20:56:19.071Z,25.82
2022-08-04T20:58:57.750Z,25.77
2022-08-04T21:01:29.435Z,25.77
2022-08-04T21:04:27.878Z,25.81
2022-08-04T21:06:56.252Z,25.83
2022-08-04T21:09:37.253Z,25.75
2022-08-04T21:12:09.099Z,25.67
2022-08-04T21:14:36.037Z,25.29
2022-08-04T21:17:03.985Z,25.43
2022-08-04T21:19:36.743Z,25.42
2022-08-04T21:22:06.914Z,25.41
2022-08-04T21:24:37.729Z,25.32
2022-08-04T21:27:09.687Z,25.27
2022-08-04T21:29:36.817Z,25.29
2022-08-04T21:32:05.909Z,25.25
2022-08-04T21:34:38.995Z,25.29
2022-08-04T21:37:09.387Z,25.34
2022-08-04T21:39:58.779Z,25.34
2022-08-04T21:42:29.186Z,24.94
2022-08-04T21:44:57.496Z,24.76
2022-08-04T21:47:24.148Z,24.21
2022-08-04T21:49:56.430Z,24.22
2022-08-04T21:52:24.458Z,24.45
2022-08-04T21:54:54.192Z,24.08
2022-08-04T21:57:24.727Z,23.99
2022-08-04T21:59:51.586Z,24.23
2022-08-04T22:02:18.145Z,24.38
2022-08-04T22:04:44.796Z,23.96
2022-08-04T22:07:16.333Z,23.86
2022-08-04T22:09:56.190Z,23.67
2022-08-04T22:12:27.040Z,23.47
2022-08-04T22:14:57.714Z,23.83
2022-08-04T22:17:29.413Z,23.99
2022-08-04T22:20:02.395Z,23.90
2022-08-04T22:22:29.999Z,23.93
2022-08-04T22:25:01.186Z,23.84
2022-08-04T22:27:47.829Z,23.97
2022-08-04T22:30:22.965Z,23.82
2022-08-04T22:32:50.361Z,23.67
2022-08-04T22:35:35.611Z,23.62
2022-08-04T22:38:07.743Z,23.51
2022-08-04T22:40:47.673Z,23.26
2022-08-04T22:43:31.196Z,23.68
2022-08-04T22:46:01.829Z,23.55
2022-08-04T22:48:31.883Z,23.49
2022-08-04T22:50:58.877Z,23.55
2022-08-04T22:53:25.561Z,23.19
2022-08-04T22:56:07.693Z,23.21
2022-08-04T22:58:45.060Z,23.22
2022-08-04T23:01:15.038Z,23.20
2022-08-04T23:03:42.087Z,23.09
2022-08-04T23:06:17.768Z,23.33
2022-08-04T23:08:50.995Z,23.07
2022-08-04T23:11:17.704Z,23.34
2022-08-04T23:13:44.281Z,23.27
2022-08-04T23:16:11.132Z,23.03
2022-08-04T23:18:41.792Z,23.16
2022-08-04T23:21:10.195Z,22.99
2022-08-04T23:23:45.230Z,22.81
2022-08-04T23:26:15.773Z,23.27
2022-08-04T23:28:43.329Z,23.16
2022-08-04T23:31:10.302Z,23.21
2022-08-04T23:33:50.603Z,23.07
2022-08-04T23:36:19.470Z,23.10
2022-08-04T23:38:59.838Z,23.03
2022-08-04T23:41:53.739Z,22.93
2022-08-04T23:44:13.343Z,22.61
2022-08-04T23:46:50.078Z,22.52
2022-08-04T23:49:19.847Z,22.57
2022-08-04T23:51:46.370Z,22.70
2022-08-04T23:54:16.201Z,23.06
2022-08-04T23:56:52.488Z,22.68
2022-08-04T23:59:50.911Z,22.62
